sensor_id;sensor_type;location;lat;lon;timestamp;temperature;humidity
57434;DHT22;43277;52.672;6.984;2022-10-10T00:00:36;8.20;99.90
57434;DHT22;43277;52.672;6.984;2022-10-10T00:03:03;8.20;99.90
57434;DHT22;43277;52.672;6.984;2022-10-10T00:05:29;8.10;99.90
57434;DHT22;43277;52.672;6.984;2022-10-10T00:07:55;8.10;99.90
57434;DHT22;43277;52.672;6.984;2022-10-10T00:10:21;8.10;99.90
57434;DHT22;43277;52.672;6.984;2022-10-10T00:12:46;8.10;99.90
57434;DHT22;43277;52.672;6.984;2022-10-10T00:15:13;8.10;99.90
57434;DHT22;43277;52.672;6.984;2022-10-10T00:17:39;8.10;99.90
57434;DHT22;43277;52.672;6.984;2022-10-10T00:20:07;8.00;99.90
57434;DHT22;43277;52.672;6.984;2022-10-10T00:22:32;8.00;99.90
57434;DHT22;43277;52.672;6.984;2022-10-10T00:24:58;8.00;99.90
57434;DHT22;43277;52.672;6.984;2022-10-10T00:27:24;8.00;99.90
57434;DHT22;43277;52.672;6.984;2022-10-10T00:29:49;8.00;99.90
57434;DHT22;43277;52.672;6.984;2022-10-10T00:32:15;7.90;99.90
57434;DHT22;43277;52.672;6.984;2022-10-10T00:34:40;7.90;99.90
57434;DHT22;43277;52.672;6.984;2022-10-10T00:37:06;7.90;99.90
57434;DHT22;43277;52.672;6.984;2022-10-10T00:39:31;7.90;99.90
57434;DHT22;43277;52.672;6.984;2022-10-10T00:41:57;7.90;99.90
57434;DHT22;43277;52.672;6.984;2022-10-10T00:44:22;7.90;99.90
57434;DHT22;43277;52.672;6.984;2022-10-10T00:46:48;7.80;99.90
57434;DHT22;43277;52.672;6.984;2022-10-10T00:49:16;7.90;99.90
57434;DHT22;43277;52.672;6.984;2022-10-10T00:51:45;7.80;99.90
57434;DHT22;43277;52.672;6.984;2022-10-10T00:54:13;7.80;99.90
57434;DHT22;43277;52.672;6.984;2022-10-10T00:56:49;7.80;99.90
57434;DHT22;43277;52.672;6.984;2022-10-10T00:59:17;7.80;99.90
57434;DHT22;43277;52.672;6.984;2022-10-10T01:01:43;7.80;99.90
57434;DHT22;43277;52.672;6.984;2022-10-10T01:04:41;7.70;99.90
57434;DHT22;43277;52.672;6.984;2022-10-10T01:07:20;7.80;99.90
57434;DHT22;43277;52.672;6.984;2022-10-10T01:09:48;7.70;99.90
57434;DHT22;43277;52.672;6.984;2022-10-10T01:15:00;7.60;99.90
57434;DHT22;43277;52.672;6.984;2022-10-10T01:17:32;7.60;99.90
57434;DHT22;43277;52.672;6.984;2022-10-10T01:20:48;7.60;99.90
57434;DHT22;43277;52.672;6.984;2022-10-10T01:23:40;7.60;99.90
57434;DHT22;43277;52.672;6.984;2022-10-10T01:29:02;7.60;99.90
57434;DHT22;43277;52.672;6.984;2022-10-10T01:31:33;7.60;99.90
57434;DHT22;43277;52.672;6.984;2022-10-10T01:42:03;7.50;99.90
57434;DHT22;43277;52.672;6.984;2022-10-10T01:44:30;7.50;99.90
57434;DHT22;43277;52.672;6.984;2022-10-10T01:46:57;7.50;99.90
57434;DHT22;43277;52.672;6.984;2022-10-10T01:49:26;7.50;99.90
57434;DHT22;43277;52.672;6.984;2022-10-10T01:52:14;7.50;99.90
57434;DHT22;43277;52.672;6.984;2022-10-10T01:55:00;7.50;99.90
57434;DHT22;43277;52.672;6.984;2022-10-10T01:57:47;7.40;99.90
57434;DHT22;43277;52.672;6.984;2022-10-10T02:00:17;7.40;99.90
57434;DHT22;43277;52.672;6.984;2022-10-10T02:05:19;7.40;99.90
57434;DHT22;43277;52.672;6.984;2022-10-10T02:08:05;7.40;99.90
57434;DHT22;43277;52.672;6.984;2022-10-10T02:10:36;7.40;99.90
57434;DHT22;43277;52.672;6.984;2022-10-10T02:13:05;7.30;99.90
57434;DHT22;43277;52.672;6.984;2022-10-10T02:15:40;7.30;99.90
57434;DHT22;43277;52.672;6.984;2022-10-10T02:18:08;7.30;99.90
57434;DHT22;43277;52.672;6.984;2022-10-10T02:20:35;7.20;99.90
57434;DHT22;43277;52.672;6.984;2022-10-10T02:23:01;7.20;99.90
57434;DHT22;43277;52.672;6.984;2022-10-10T02:25:28;7.20;99.90
57434;DHT22;43277;52.672;6.984;2022-10-10T02:28:14;7.10;99.90
57434;DHT22;43277;52.672;6.984;2022-10-10T02:30:44;7.10;99.90
57434;DHT22;43277;52.672;6.984;2022-10-10T02:33:14;7.10;99.90
57434;DHT22;43277;52.672;6.984;2022-10-10T02:35:42;7.10;99.90
57434;DHT22;43277;52.672;6.984;2022-10-10T02:38:11;7.10;99.90
57434;DHT22;43277;52.672;6.984;2022-10-10T02:40:39;7.10;99.90
57434;DHT22;43277;52.672;6.984;2022-10-10T02:43:08;7.00;99.90
57434;DHT22;43277;52.672;6.984;2022-10-10T02:45:36;7.00;99.90
57434;DHT22;43277;52.672;6.984;2022-10-10T02:48:02;7.00;99.90
57434;DHT22;43277;52.672;6.984;2022-10-10T02:50:29;7.00;99.90
57434;DHT22;43277;52.672;6.984;2022-10-10T02:52:55;6.90;99.90
57434;DHT22;43277;52.672;6.984;2022-10-10T02:55:21;6.90;99.90
57434;DHT22;43277;52.672;6.984;2022-10-10T02:57:47;7.00;99.90
57434;DHT22;43277;52.672;6.984;2022-10-10T03:00:13;7.00;99.90
57434;DHT22;43277;52.672;6.984;2022-10-10T03:02:39;6.90;99.90
57434;DHT22;43277;52.672;6.984;2022-10-10T03:05:05;6.90;99.90
57434;DHT22;43277;52.672;6.984;2022-10-10T03:07:30;6.90;99.90
57434;DHT22;43277;52.672;6.984;2022-10-10T03:09:56;6.90;99.90
57434;DHT22;43277;52.672;6.984;2022-10-10T03:12:22;6.90;99.90
57434;DHT22;43277;52.672;6.984;2022-10-10T03:14:47;6.80;99.90
57434;DHT22;43277;52.672;6.984;2022-10-10T03:17:13;6.80;99.90
57434;DHT22;43277;52.672;6.984;2022-10-10T03:19:39;6.80;99.90
57434;DHT22;43277;52.672;6.984;2022-10-10T03:22:04;6.80;99.90
57434;DHT22;43277;52.672;6.984;2022-10-10T03:24:30;6.80;99.90
57434;DHT22;43277;52.672;6.984;2022-10-10T03:26:55;6.80;99.90
57434;DHT22;43277;52.672;6.984;2022-10-10T03:29:21;6.70;99.90
57434;DHT22;43277;52.672;6.984;2022-10-10T03:31:47;6.80;99.90
57434;DHT22;43277;52.672;6.984;2022-10-10T03:34:12;6.70;99.90
57434;DHT22;43277;52.672;6.984;2022-10-10T03:36:38;6.70;99.90
57434;DHT22;43277;52.672;6.984;2022-10-10T03:39:03;6.70;99.90
57434;DHT22;43277;52.672;6.984;2022-10-10T03:41:30;6.70;99.90
57434;DHT22;43277;52.672;6.984;2022-10-10T03:43:56;6.70;99.90
57434;DHT22;43277;52.672;6.984;2022-10-10T03:46:22;6.70;99.90
57434;DHT22;43277;52.672;6.984;2022-10-10T03:48:48;6.70;99.90
57434;DHT22;43277;52.672;6.984;2022-10-10T03:51:14;6.70;99.90
57434;DHT22;43277;52.672;6.984;2022-10-10T03:53:40;6.60;99.90
57434;DHT22;43277;52.672;6.984;2022-10-10T03:56:05;6.60;99.90
57434;DHT22;43277;52.672;6.984;2022-10-10T03:58:31;6.70;99.90
57434;DHT22;43277;52.672;6.984;2022-10-10T04:01:01;6.60;99.90
57434;DHT22;43277;52.672;6.984;2022-10-10T04:03:27;6.70;99.90
57434;DHT22;43277;52.672;6.984;2022-10-10T04:05:54;6.70;99.90
57434;DHT22;43277;52.672;6.984;2022-10-10T04:08:20;6.70;99.90
57434;DHT22;43277;52.672;6.984;2022-10-10T04:10:50;6.70;99.90
57434;DHT22;43277;52.672;6.984;2022-10-10T04:13:15;6.70;99.90
57434;DHT22;43277;52.672;6.984;2022-10-10T04:15:41;6.80;99.90
57434;DHT22;43277;52.672;6.984;2022-10-10T04:18:07;6.60;99.90
57434;DHT22;43277;52.672;6.984;2022-10-10T04:20:32;6.70;99.90
57434;DHT22;43277;52.672;6.984;2022-10-10T04:22:58;6.70;99.90
57434;DHT22;43277;52.672;6.984;2022-10-10T04:25:23;6.60;99.90
57434;DHT22;43277;52.672;6.984;2022-10-10T04:27:49;6.60;99.90
57434;DHT22;43277;52.672;6.984;2022-10-10T04:30:15;6.60;99.90
57434;DHT22;43277;52.672;6.984;2022-10-10T04:32:40;6.50;99.90
57434;DHT22;43277;52.672;6.984;2022-10-10T04:35:06;6.50;99.90
57434;DHT22;43277;52.672;6.984;2022-10-10T04:37:33;6.50;99.90
57434;DHT22;43277;52.672;6.984;2022-10-10T04:39:58;6.50;99.90
57434;DHT22;43277;52.672;6.984;2022-10-10T04:42:24;6.50;99.90
57434;DHT22;43277;52.672;6.984;2022-10-10T04:44:50;6.50;99.90
57434;DHT22;43277;52.672;6.984;2022-10-10T04:47:16;6.50;99.90
57434;DHT22;43277;52.672;6.984;2022-10-10T04:49:41;6.50;99.90
57434;DHT22;43277;52.672;6.984;2022-10-10T04:52:08;6.50;99.90
57434;DHT22;43277;52.672;6.984;2022-10-10T04:54:34;6.50;99.90
57434;DHT22;43277;52.672;6.984;2022-10-10T04:56:59;6.50;99.90
57434;DHT22;43277;52.672;6.984;2022-10-10T04:59:25;6.50;99.90
57434;DHT22;43277;52.672;6.984;2022-10-10T05:01:50;6.50;99.90
57434;DHT22;43277;52.672;6.984;2022-10-10T05:04:16;6.40;99.90
57434;DHT22;43277;52.672;6.984;2022-10-10T05:06:42;6.40;99.90
57434;DHT22;43277;52.672;6.984;2022-10-10T05:09:07;6.30;99.90
57434;DHT22;43277;52.672;6.984;2022-10-10T05:11:33;6.40;99.90
57434;DHT22;43277;52.672;6.984;2022-10-10T05:13:58;6.30;99.90
57434;DHT22;43277;52.672;6.984;2022-10-10T05:16:24;6.30;99.90
57434;DHT22;43277;52.672;6.984;2022-10-10T05:18:50;6.30;99.90
57434;DHT22;43277;52.672;6.984;2022-10-10T05:21:16;6.40;99.90
57434;DHT22;43277;52.672;6.984;2022-10-10T05:23:41;6.30;99.90
57434;DHT22;43277;52.672;6.984;2022-10-10T05:26:08;6.40;99.90
57434;DHT22;43277;52.672;6.984;2022-10-10T05:28:34;6.40;99.90
57434;DHT22;43277;52.672;6.984;2022-10-10T05:31:01;6.40;99.90
57434;DHT22;43277;52.672;6.984;2022-10-10T05:33:27;6.40;99.90
57434;DHT22;43277;52.672;6.984;2022-10-10T05:36:01;6.40;99.90
57434;DHT22;43277;52.672;6.984;2022-10-10T05:38:26;6.40;99.90
57434;DHT22;43277;52.672;6.984;2022-10-10T05:40:53;6.40;99.90
57434;DHT22;43277;52.672;6.984;2022-10-10T05:43:19;6.50;99.90
57434;DHT22;43277;52.672;6.984;2022-10-10T05:45:44;6.40;99.90
57434;DHT22;43277;52.672;6.984;2022-10-10T05:48:10;6.50;99.90
57434;DHT22;43277;52.672;6.984;2022-10-10T05:50:38;6.40;99.90
57434;DHT22;43277;52.672;6.984;2022-10-10T05:53:04;6.50;99.90
57434;DHT22;43277;52.672;6.984;2022-10-10T05:55:31;6.50;99.90
57434;DHT22;43277;52.672;6.984;2022-10-10T05:57:57;6.40;99.90
57434;DHT22;43277;52.672;6.984;2022-10-10T06:00:22;6.50;99.90
57434;DHT22;43277;52.672;6.984;2022-10-10T06:02:48;6.50;99.90
57434;DHT22;43277;52.672;6.984;2022-10-10T06:05:14;6.50;99.90
57434;DHT22;43277;52.672;6.984;2022-10-10T06:07:39;6.50;99.90
57434;DHT22;43277;52.672;6.984;2022-10-10T06:10:05;6.50;99.90
57434;DHT22;43277;52.672;6.984;2022-10-10T06:12:31;6.50;99.90
57434;DHT22;43277;52.672;6.984;2022-10-10T06:14:56;6.50;99.90
57434;DHT22;43277;52.672;6.984;2022-10-10T06:17:22;6.50;99.90
57434;DHT22;43277;52.672;6.984;2022-10-10T06:19:48;6.60;99.90
57434;DHT22;43277;52.672;6.984;2022-10-10T06:22:13;6.60;99.90
57434;DHT22;43277;52.672;6.984;2022-10-10T06:24:39;6.60;99.90
57434;DHT22;43277;52.672;6.984;2022-10-10T06:27:05;6.60;99.90
57434;DHT22;43277;52.672;6.984;2022-10-10T06:29:30;6.70;99.90
57434;DHT22;43277;52.672;6.984;2022-10-10T06:31:56;6.70;99.90
57434;DHT22;43277;52.672;6.984;2022-10-10T06:34:21;6.70;99.90
57434;DHT22;43277;52.672;6.984;2022-10-10T06:36:50;6.70;99.90
57434;DHT22;43277;52.672;6.984;2022-10-10T06:39:16;6.80;99.90
57434;DHT22;43277;52.672;6.984;2022-10-10T06:41:42;6.80;99.90
57434;DHT22;43277;52.672;6.984;2022-10-10T06:44:08;6.80;99.90
57434;DHT22;43277;52.672;6.984;2022-10-10T06:46:34;6.90;99.90
57434;DHT22;43277;52.672;6.984;2022-10-10T06:49:02;6.90;99.90
57434;DHT22;43277;52.672;6.984;2022-10-10T06:51:29;6.90;99.90
57434;DHT22;43277;52.672;6.984;2022-10-10T06:53:56;7.00;99.90
57434;DHT22;43277;52.672;6.984;2022-10-10T06:56:22;7.00;99.90
57434;DHT22;43277;52.672;6.984;2022-10-10T06:58:48;7.00;99.90
57434;DHT22;43277;52.672;6.984;2022-10-10T07:01:18;7.10;99.90
57434;DHT22;43277;52.672;6.984;2022-10-10T07:03:44;7.20;99.90
57434;DHT22;43277;52.672;6.984;2022-10-10T07:06:10;7.20;99.90
57434;DHT22;43277;52.672;6.984;2022-10-10T07:08:38;7.30;99.90
57434;DHT22;43277;52.672;6.984;2022-10-10T07:11:04;7.40;99.90
57434;DHT22;43277;52.672;6.984;2022-10-10T07:13:31;7.40;99.90
57434;DHT22;43277;52.672;6.984;2022-10-10T07:15:58;7.60;99.90
57434;DHT22;43277;52.672;6.984;2022-10-10T07:18:24;7.70;99.90
57434;DHT22;43277;52.672;6.984;2022-10-10T07:20:49;7.80;99.90
57434;DHT22;43277;52.672;6.984;2022-10-10T07:23:16;7.90;99.90
57434;DHT22;43277;52.672;6.984;2022-10-10T07:25:42;8.10;99.90
57434;DHT22;43277;52.672;6.984;2022-10-10T07:28:09;8.20;99.90
57434;DHT22;43277;52.672;6.984;2022-10-10T07:30:39;8.40;99.90
57434;DHT22;43277;52.672;6.984;2022-10-10T07:33:05;8.50;99.90
57434;DHT22;43277;52.672;6.984;2022-10-10T07:35:30;8.70;99.90
57434;DHT22;43277;52.672;6.984;2022-10-10T07:37:56;8.80;99.90
57434;DHT22;43277;52.672;6.984;2022-10-10T07:40:22;8.90;99.90
57434;DHT22;43277;52.672;6.984;2022-10-10T07:42:48;9.10;99.90
57434;DHT22;43277;52.672;6.984;2022-10-10T07:45:14;9.20;99.90
57434;DHT22;43277;52.672;6.984;2022-10-10T07:47:39;9.30;99.90
57434;DHT22;43277;52.672;6.984;2022-10-10T07:50:06;9.40;99.90
57434;DHT22;43277;52.672;6.984;2022-10-10T07:52:33;9.60;99.90
57434;DHT22;43277;52.672;6.984;2022-10-10T07:55:00;9.80;99.90
57434;DHT22;43277;52.672;6.984;2022-10-10T07:57:25;9.90;99.90
57434;DHT22;43277;52.672;6.984;2022-10-10T07:59:51;9.90;99.90
57434;DHT22;43277;52.672;6.984;2022-10-10T08:02:17;10.20;99.90
57434;DHT22;43277;52.672;6.984;2022-10-10T08:04:42;10.30;99.90
57434;DHT22;43277;52.672;6.984;2022-10-10T08:07:08;10.40;99.90
57434;DHT22;43277;52.672;6.984;2022-10-10T08:09:34;10.50;99.90
57434;DHT22;43277;52.672;6.984;2022-10-10T08:12:00;10.60;99.90
57434;DHT22;43277;52.672;6.984;2022-10-10T08:14:25;10.80;99.90
57434;DHT22;43277;52.672;6.984;2022-10-10T08:16:51;11.00;99.90
57434;DHT22;43277;52.672;6.984;2022-10-10T08:19:17;11.10;99.90
57434;DHT22;43277;52.672;6.984;2022-10-10T08:21:42;11.20;99.90
57434;DHT22;43277;52.672;6.984;2022-10-10T08:24:08;11.30;99.90
57434;DHT22;43277;52.672;6.984;2022-10-10T08:26:33;11.40;99.90
57434;DHT22;43277;52.672;6.984;2022-10-10T08:28:59;11.50;99.90
57434;DHT22;43277;52.672;6.984;2022-10-10T08:31:25;11.50;99.90
57434;DHT22;43277;52.672;6.984;2022-10-10T08:33:51;11.70;99.90
57434;DHT22;43277;52.672;6.984;2022-10-10T08:36:19;11.80;99.90
57434;DHT22;43277;52.672;6.984;2022-10-10T08:38:45;11.90;99.90
57434;DHT22;43277;52.672;6.984;2022-10-10T08:44:12;12.20;99.90
57434;DHT22;43277;52.672;6.984;2022-10-10T08:49:32;12.40;99.90
57434;DHT22;43277;52.672;6.984;2022-10-10T08:52:13;12.60;99.90
57434;DHT22;43277;52.672;6.984;2022-10-10T08:54:41;12.80;99.90
57434;DHT22;43277;52.672;6.984;2022-10-10T08:57:22;12.90;99.90
57434;DHT22;43277;52.672;6.984;2022-10-10T08:59:49;13.10;99.90
57434;DHT22;43277;52.672;6.984;2022-10-10T09:02:29;13.20;99.90
57434;DHT22;43277;52.672;6.984;2022-10-10T09:04:56;13.30;99.90
57434;DHT22;43277;52.672;6.984;2022-10-10T09:10:11;13.50;99.90
57434;DHT22;43277;52.672;6.984;2022-10-10T09:13:25;13.50;99.90
57434;DHT22;43277;52.672;6.984;2022-10-10T09:21:23;13.70;99.90
57434;DHT22;43277;52.672;6.984;2022-10-10T09:26:26;13.90;99.90
57434;DHT22;43277;52.672;6.984;2022-10-10T09:28:54;14.00;99.90
57434;DHT22;43277;52.672;6.984;2022-10-10T09:31:34;14.10;99.90
57434;DHT22;43277;52.672;6.984;2022-10-10T09:34:22;14.10;99.90
57434;DHT22;43277;52.672;6.984;2022-10-10T09:36:52;14.00;99.90
57434;DHT22;43277;52.672;6.984;2022-10-10T09:39:39;14.20;99.90
57434;DHT22;43277;52.672;6.984;2022-10-10T09:42:10;14.40;99.90
57434;DHT22;43277;52.672;6.984;2022-10-10T09:44:37;14.60;99.90
57434;DHT22;43277;52.672;6.984;2022-10-10T09:47:03;14.60;99.90
57434;DHT22;43277;52.672;6.984;2022-10-10T09:49:29;14.60;99.90
57434;DHT22;43277;52.672;6.984;2022-10-10T09:51:55;14.70;99.90
57434;DHT22;43277;52.672;6.984;2022-10-10T09:54:21;14.80;99.90
57434;DHT22;43277;52.672;6.984;2022-10-10T09:56:54;14.80;99.90
57434;DHT22;43277;52.672;6.984;2022-10-10T09:59:38;14.90;99.90
57434;DHT22;43277;52.672;6.984;2022-10-10T10:02:20;14.70;99.90
57434;DHT22;43277;52.672;6.984;2022-10-10T10:04:47;14.70;99.90
57434;DHT22;43277;52.672;6.984;2022-10-10T10:07:23;14.80;99.90
57434;DHT22;43277;52.672;6.984;2022-10-10T10:09:51;14.80;99.90
57434;DHT22;43277;52.672;6.984;2022-10-10T10:12:38;14.60;99.90
57434;DHT22;43277;52.672;6.984;2022-10-10T10:15:15;14.90;99.90
57434;DHT22;43277;52.672;6.984;2022-10-10T10:17:41;15.00;99.90
57434;DHT22;43277;52.672;6.984;2022-10-10T10:20:43;15.20;99.90
57434;DHT22;43277;52.672;6.984;2022-10-10T10:23:23;15.70;99.90
57434;DHT22;43277;52.672;6.984;2022-10-10T10:25:57;15.90;99.90
57434;DHT22;43277;52.672;6.984;2022-10-10T10:28:23;15.90;99.90
57434;DHT22;43277;52.672;6.984;2022-10-10T10:30:52;16.00;99.90
57434;DHT22;43277;52.672;6.984;2022-10-10T10:36:10;16.00;99.90
57434;DHT22;43277;52.672;6.984;2022-10-10T10:41:51;16.30;99.90
57434;DHT22;43277;52.672;6.984;2022-10-10T10:57:57;16.70;99.90
57434;DHT22;43277;52.672;6.984;2022-10-10T11:00:27;16.80;99.90
57434;DHT22;43277;52.672;6.984;2022-10-10T11:11:53;16.40;99.90
57434;DHT22;43277;52.672;6.984;2022-10-10T11:14:31;16.60;99.90
57434;DHT22;43277;52.672;6.984;2022-10-10T11:19:52;17.10;99.90
57434;DHT22;43277;52.672;6.984;2022-10-10T11:22:33;17.00;99.90
57434;DHT22;43277;52.672;6.984;2022-10-10T11:25:06;17.10;99.80
57434;DHT22;43277;52.672;6.984;2022-10-10T11:27:42;17.10;99.90
57434;DHT22;43277;52.672;6.984;2022-10-10T11:30:19;17.00;99.90
57434;DHT22;43277;52.672;6.984;2022-10-10T11:38:24;16.80;99.90
57434;DHT22;43277;52.672;6.984;2022-10-10T11:40:58;16.60;99.90
57434;DHT22;43277;52.672;6.984;2022-10-10T11:43:45;16.50;99.90
57434;DHT22;43277;52.672;6.984;2022-10-10T11:46:15;16.50;99.90
57434;DHT22;43277;52.672;6.984;2022-10-10T11:48:56;16.50;99.90
57434;DHT22;43277;52.672;6.984;2022-10-10T11:54:40;16.70;99.90
57434;DHT22;43277;52.672;6.984;2022-10-10T11:57:22;16.70;99.90
57434;DHT22;43277;52.672;6.984;2022-10-10T11:59:54;16.60;99.90
57434;DHT22;43277;52.672;6.984;2022-10-10T12:02:36;16.50;99.90
57434;DHT22;43277;52.672;6.984;2022-10-10T12:05:05;16.80;99.90
57434;DHT22;43277;52.672;6.984;2022-10-10T12:07:39;16.50;99.90
57434;DHT22;43277;52.672;6.984;2022-10-10T12:10:17;16.50;99.90
57434;DHT22;43277;52.672;6.984;2022-10-10T12:12:48;16.70;99.90
57434;DHT22;43277;52.672;6.984;2022-10-10T12:15:27;16.70;99.90
57434;DHT22;43277;52.672;6.984;2022-10-10T12:17:53;16.70;99.90
57434;DHT22;43277;52.672;6.984;2022-10-10T12:22:46;16.70;99.90
57434;DHT22;43277;52.672;6.984;2022-10-10T12:25:42;16.70;99.90
57434;DHT22;43277;52.672;6.984;2022-10-10T12:33:21;16.50;99.90
57434;DHT22;43277;52.672;6.984;2022-10-10T12:54:52;16.50;99.90
57434;DHT22;43277;52.672;6.984;2022-10-10T12:57:48;16.60;99.90
57434;DHT22;43277;52.672;6.984;2022-10-10T13:00:25;16.50;99.90
57434;DHT22;43277;52.672;6.984;2022-10-10T13:02:55;16.60;99.90
57434;DHT22;43277;52.672;6.984;2022-10-10T13:05:29;16.50;99.90
57434;DHT22;43277;52.672;6.984;2022-10-10T13:08:02;16.50;99.90
57434;DHT22;43277;52.672;6.984;2022-10-10T13:10:30;16.40;99.90
57434;DHT22;43277;52.672;6.984;2022-10-10T13:13:01;16.20;99.90
57434;DHT22;43277;52.672;6.984;2022-10-10T13:15:29;16.30;99.90
57434;DHT22;43277;52.672;6.984;2022-10-10T13:17:55;16.20;99.90
57434;DHT22;43277;52.672;6.984;2022-10-10T13:22:56;16.30;99.90
57434;DHT22;43277;52.672;6.984;2022-10-10T13:25:22;16.00;99.90
57434;DHT22;43277;52.672;6.984;2022-10-10T13:27:48;16.00;99.90
57434;DHT22;43277;52.672;6.984;2022-10-10T13:30:19;16.10;99.90
57434;DHT22;43277;52.672;6.984;2022-10-10T13:32:45;16.10;99.90
57434;DHT22;43277;52.672;6.984;2022-10-10T13:35:25;16.00;99.90
57434;DHT22;43277;52.672;6.984;2022-10-10T13:37:59;16.00;99.90
57434;DHT22;43277;52.672;6.984;2022-10-10T13:40:26;16.00;99.90
57434;DHT22;43277;52.672;6.984;2022-10-10T13:42:52;16.00;99.90
57434;DHT22;43277;52.672;6.984;2022-10-10T13:50:49;16.10;99.90
57434;DHT22;43277;52.672;6.984;2022-10-10T14:01:27;15.60;99.90
57434;DHT22;43277;52.672;6.984;2022-10-10T14:07:10;15.30;99.90
57434;DHT22;43277;52.672;6.984;2022-10-10T14:09:53;15.20;99.90
57434;DHT22;43277;52.672;6.984;2022-10-10T14:12:26;15.20;99.90
57434;DHT22;43277;52.672;6.984;2022-10-10T14:14:54;15.10;99.90
57434;DHT22;43277;52.672;6.984;2022-10-10T14:17:20;15.10;99.90
57434;DHT22;43277;52.672;6.984;2022-10-10T14:19:47;15.20;99.90
57434;DHT22;43277;52.672;6.984;2022-10-10T14:22:13;15.10;99.90
57434;DHT22;43277;52.672;6.984;2022-10-10T14:24:39;15.10;99.90
57434;DHT22;43277;52.672;6.984;2022-10-10T14:27:24;15.00;99.90
57434;DHT22;43277;52.672;6.984;2022-10-10T14:29:51;15.00;99.90
57434;DHT22;43277;52.672;6.984;2022-10-10T14:32:17;14.90;99.90
57434;DHT22;43277;52.672;6.984;2022-10-10T14:34:44;14.80;99.90
57434;DHT22;43277;52.672;6.984;2022-10-10T14:37:18;14.90;99.90
57434;DHT22;43277;52.672;6.984;2022-10-10T14:39:44;14.90;99.90
57434;DHT22;43277;52.672;6.984;2022-10-10T14:42:11;14.80;99.90
57434;DHT22;43277;52.672;6.984;2022-10-10T14:44:38;14.80;99.90
57434;DHT22;43277;52.672;6.984;2022-10-10T14:47:04;14.60;99.90
57434;DHT22;43277;52.672;6.984;2022-10-10T14:49:31;14.60;99.90
57434;DHT22;43277;52.672;6.984;2022-10-10T14:51:56;14.60;99.90
57434;DHT22;43277;52.672;6.984;2022-10-10T14:54:22;14.60;99.90
57434;DHT22;43277;52.672;6.984;2022-10-10T14:56:48;14.60;99.90
57434;DHT22;43277;52.672;6.984;2022-10-10T14:59:17;14.60;99.90
57434;DHT22;43277;52.672;6.984;2022-10-10T15:01:44;14.60;99.90
57434;DHT22;43277;52.672;6.984;2022-10-10T15:04:10;14.50;99.90
57434;DHT22;43277;52.672;6.984;2022-10-10T15:06:35;14.40;99.90
57434;DHT22;43277;52.672;6.984;2022-10-10T15:09:01;14.30;99.90
57434;DHT22;43277;52.672;6.984;2022-10-10T15:11:26;14.20;99.90
57434;DHT22;43277;52.672;6.984;2022-10-10T15:13:52;14.10;99.90
57434;DHT22;43277;52.672;6.984;2022-10-10T15:16:18;14.00;99.90
57434;DHT22;43277;52.672;6.984;2022-10-10T15:18:43;13.90;99.90
57434;DHT22;43277;52.672;6.984;2022-10-10T15:21:10;13.80;99.90
57434;DHT22;43277;52.672;6.984;2022-10-10T15:23:36;13.70;99.90
57434;DHT22;43277;52.672;6.984;2022-10-10T15:26:02;13.50;99.90
57434;DHT22;43277;52.672;6.984;2022-10-10T15:28:27;13.40;99.90
57434;DHT22;43277;52.672;6.984;2022-10-10T15:30:53;13.40;99.90
57434;DHT22;43277;52.672;6.984;2022-10-10T15:33:19;13.30;99.90
57434;DHT22;43277;52.672;6.984;2022-10-10T15:35:44;13.20;99.90
57434;DHT22;43277;52.672;6.984;2022-10-10T15:38:10;13.20;99.90
57434;DHT22;43277;52.672;6.984;2022-10-10T15:40:36;13.10;99.90
57434;DHT22;43277;52.672;6.984;2022-10-10T15:43:01;13.10;99.90
57434;DHT22;43277;52.672;6.984;2022-10-10T15:45:27;13.00;99.90
57434;DHT22;43277;52.672;6.984;2022-10-10T15:47:53;13.00;99.90
57434;DHT22;43277;52.672;6.984;2022-10-10T15:50:18;13.00;99.90
57434;DHT22;43277;52.672;6.984;2022-10-10T15:52:44;12.90;99.90
57434;DHT22;43277;52.672;6.984;2022-10-10T15:55:10;12.90;99.90
57434;DHT22;43277;52.672;6.984;2022-10-10T15:57:35;13.00;99.90
57434;DHT22;43277;52.672;6.984;2022-10-10T16:00:01;13.00;99.90
57434;DHT22;43277;52.672;6.984;2022-10-10T16:02:27;12.90;99.90
57434;DHT22;43277;52.672;6.984;2022-10-10T16:04:53;13.00;99.90
57434;DHT22;43277;52.672;6.984;2022-10-10T16:07:18;13.00;99.90
57434;DHT22;43277;52.672;6.984;2022-10-10T16:09:44;12.90;99.90
57434;DHT22;43277;52.672;6.984;2022-10-10T16:12:11;12.90;99.90
57434;DHT22;43277;52.672;6.984;2022-10-10T16:14:36;12.90;99.90
57434;DHT22;43277;52.672;6.984;2022-10-10T16:17:02;13.00;99.90
57434;DHT22;43277;52.672;6.984;2022-10-10T16:19:27;13.00;99.90
57434;DHT22;43277;52.672;6.984;2022-10-10T16:21:53;12.90;99.90
57434;DHT22;43277;52.672;6.984;2022-10-10T16:24:18;12.90;99.90
57434;DHT22;43277;52.672;6.984;2022-10-10T16:26:44;12.90;99.90
57434;DHT22;43277;52.672;6.984;2022-10-10T16:29:10;12.80;99.90
57434;DHT22;43277;52.672;6.984;2022-10-10T16:31:36;12.80;99.90
57434;DHT22;43277;52.672;6.984;2022-10-10T16:34:04;12.70;99.90
57434;DHT22;43277;52.672;6.984;2022-10-10T16:36:32;12.60;99.90
57434;DHT22;43277;52.672;6.984;2022-10-10T16:38:58;12.50;99.90
57434;DHT22;43277;52.672;6.984;2022-10-10T16:41:29;12.50;99.90
57434;DHT22;43277;52.672;6.984;2022-10-10T16:43:55;12.40;99.90
57434;DHT22;43277;52.672;6.984;2022-10-10T16:46:24;12.40;99.90
57434;DHT22;43277;52.672;6.984;2022-10-10T16:48:56;12.30;99.90
57434;DHT22;43277;52.672;6.984;2022-10-10T16:51:23;12.20;99.90
57434;DHT22;43277;52.672;6.984;2022-10-10T16:53:49;12.10;99.90
57434;DHT22;43277;52.672;6.984;2022-10-10T16:56:17;12.10;99.90
57434;DHT22;43277;52.672;6.984;2022-10-10T16:58:43;12.00;99.90
57434;DHT22;43277;52.672;6.984;2022-10-10T17:01:14;12.00;99.90
57434;DHT22;43277;52.672;6.984;2022-10-10T17:03:40;11.90;99.90
57434;DHT22;43277;52.672;6.984;2022-10-10T17:06:11;11.80;99.90
57434;DHT22;43277;52.672;6.984;2022-10-10T17:08:38;11.80;99.90
57434;DHT22;43277;52.672;6.984;2022-10-10T17:11:05;11.70;99.90
57434;DHT22;43277;52.672;6.984;2022-10-10T17:13:33;11.70;99.90
57434;DHT22;43277;52.672;6.984;2022-10-10T17:16:06;11.60;99.90
57434;DHT22;43277;52.672;6.984;2022-10-10T17:18:35;11.50;99.90
57434;DHT22;43277;52.672;6.984;2022-10-10T17:21:01;11.40;99.90
57434;DHT22;43277;52.672;6.984;2022-10-10T17:23:29;11.50;99.90
57434;DHT22;43277;52.672;6.984;2022-10-10T17:25:55;11.40;99.90
57434;DHT22;43277;52.672;6.984;2022-10-10T17:28:20;11.40;99.90
57434;DHT22;43277;52.672;6.984;2022-10-10T17:30:48;11.30;99.90
57434;DHT22;43277;52.672;6.984;2022-10-10T17:33:15;11.30;99.90
57434;DHT22;43277;52.672;6.984;2022-10-10T17:35:43;11.20;99.90
57434;DHT22;43277;52.672;6.984;2022-10-10T17:38:10;11.20;99.90
57434;DHT22;43277;52.672;6.984;2022-10-10T17:40:37;11.10;99.90
57434;DHT22;43277;52.672;6.984;2022-10-10T17:43:03;11.10;99.90
57434;DHT22;43277;52.672;6.984;2022-10-10T17:45:30;11.10;99.90